sensor_id;sensor_type;location;lat;lon;timestamp;pressure;altitude;pressure_sealevel;temperature;humidity
58967;BME280;44744;51.894;5.080;2023-05-12T00:00:12;101817.46;;;12.62;84.93
58967;BME280;44744;51.894;5.080;2023-05-12T00:01:12;101817.55;;;12.60;84.77
58967;BME280;44744;51.894;5.080;2023-05-12T00:02:13;101816.91;;;12.58;84.48
58967;BME280;44744;51.894;5.080;2023-05-12T00:03:14;101812.39;;;12.56;84.27
58967;BME280;44744;51.894;5.080;2023-05-12T00:04:21;101812.49;;;12.54;84.48
58967;BME280;44744;51.894;5.080;2023-05-12T00:05:45;101811.42;;;12.51;84.15
58967;BME280;44744;51.894;5.080;2023-05-12T00:06:52;101813.95;;;12.50;84.50
58967;BME280;44744;51.894;5.080;2023-05-12T00:07:52;101815.09;;;12.48;84.34
58967;BME280;44744;51.894;5.080;2023-05-12T00:08:56;101814.57;;;12.48;84.80
58967;BME280;44744;51.894;5.080;2023-05-12T00:09:56;101809.92;;;12.49;84.61
58967;BME280;44744;51.894;5.080;2023-05-12T00:10:57;101811.54;;;12.48;84.48
58967;BME280;44744;51.894;5.080;2023-05-12T00:11:58;101811.20;;;12.48;84.56
58967;BME280;44744;51.894;5.080;2023-05-12T00:13:01;101808.53;;;12.48;84.81
58967;BME280;44744;51.894;5.080;2023-05-12T00:14:01;101806.61;;;12.47;84.47
58967;BME280;44744;51.894;5.080;2023-05-12T00:15:04;101806.44;;;12.43;84.39
58967;BME280;44744;51.894;5.080;2023-05-12T00:16:06;101807.20;;;12.42;84.56
58967;BME280;44744;51.894;5.080;2023-05-12T00:17:10;101807.56;;;12.42;84.60
58967;BME280;44744;51.894;5.080;2023-05-12T00:18:10;101804.02;;;12.42;84.60
58967;BME280;44744;51.894;5.080;2023-05-12T00:19:13;101807.53;;;12.39;84.83
58967;BME280;44744;51.894;5.080;2023-05-12T00:20:13;101804.40;;;12.38;84.78
58967;BME280;44744;51.894;5.080;2023-05-12T00:21:16;101806.27;;;12.36;84.78
58967;BME280;44744;51.894;5.080;2023-05-12T00:22:23;101807.73;;;12.35;84.78
58967;BME280;44744;51.894;5.080;2023-05-12T00:23:24;101808.30;;;12.34;84.96
58967;BME280;44744;51.894;5.080;2023-05-12T00:24:25;101806.00;;;12.34;84.98
58967;BME280;44744;51.894;5.080;2023-05-12T00:25:28;101802.50;;;12.33;85.01
58967;BME280;44744;51.894;5.080;2023-05-12T00:26:33;101807.02;;;12.31;84.88
58967;BME280;44744;51.894;5.080;2023-05-12T00:27:34;101805.25;;;12.31;85.29
58967;BME280;44744;51.894;5.080;2023-05-12T00:28:35;101802.56;;;12.32;85.43
58967;BME280;44744;51.894;5.080;2023-05-12T00:29:36;101807.76;;;12.31;85.40
58967;BME280;44744;51.894;5.080;2023-05-12T00:30:37;101802.34;;;12.29;85.66
58967;BME280;44744;51.894;5.080;2023-05-12T00:31:37;101802.38;;;12.27;85.50
58967;BME280;44744;51.894;5.080;2023-05-12T00:32:40;101800.30;;;12.27;85.70
58967;BME280;44744;51.894;5.080;2023-05-12T00:33:44;101800.83;;;12.27;85.94
58967;BME280;44744;51.894;5.080;2023-05-12T00:34:44;101798.95;;;12.25;85.94
58967;BME280;44744;51.894;5.080;2023-05-12T00:35:46;101798.59;;;12.25;86.01
58967;BME280;44744;51.894;5.080;2023-05-12T00:36:47;101798.17;;;12.27;85.98
58967;BME280;44744;51.894;5.080;2023-05-12T00:37:51;101798.52;;;12.27;86.24
58967;BME280;44744;51.894;5.080;2023-05-12T00:38:51;101797.23;;;12.24;86.29
58967;BME280;44744;51.894;5.080;2023-05-12T00:39:52;101796.57;;;12.23;86.35
58967;BME280;44744;51.894;5.080;2023-05-12T00:40:52;101796.38;;;12.23;86.45
58967;BME280;44744;51.894;5.080;2023-05-12T00:41:57;101796.18;;;12.24;86.54
58967;BME280;44744;51.894;5.080;2023-05-12T00:43:02;101799.14;;;12.25;86.63
58967;BME280;44744;51.894;5.080;2023-05-12T00:44:03;101797.17;;;12.25;86.71
58967;BME280;44744;51.894;5.080;2023-05-12T00:45:04;101798.31;;;12.24;86.73
58967;BME280;44744;51.894;5.080;2023-05-12T00:46:07;101796.98;;;12.22;86.74
58967;BME280;44744;51.894;5.080;2023-05-12T00:47:13;101793.39;;;12.19;86.99
58967;BME280;44744;51.894;5.080;2023-05-12T00:48:14;101796.05;;;12.19;86.83
58967;BME280;44744;51.894;5.080;2023-05-12T00:49:21;101794.67;;;12.18;87.05
58967;BME280;44744;51.894;5.080;2023-05-12T00:50:23;101796.80;;;12.18;87.03
58967;BME280;44744;51.894;5.080;2023-05-12T00:51:26;101796.05;;;12.19;87.27
58967;BME280;44744;51.894;5.080;2023-05-12T00:52:27;101800.51;;;12.19;87.24
58967;BME280;44744;51.894;5.080;2023-05-12T00:53:29;101796.78;;;12.19;87.39
58967;BME280;44744;51.894;5.080;2023-05-12T00:54:33;101794.67;;;12.18;87.44
58967;BME280;44744;51.894;5.080;2023-05-12T00:55:35;101795.72;;;12.19;87.59
58967;BME280;44744;51.894;5.080;2023-05-12T00:56:35;101794.59;;;12.20;87.59
58967;BME280;44744;51.894;5.080;2023-05-12T00:57:46;101794.71;;;12.17;87.71
58967;BME280;44744;51.894;5.080;2023-05-12T00:58:48;101792.81;;;12.16;88.04
58967;BME280;44744;51.894;5.080;2023-05-12T00:59:49;101793.61;;;12.14;88.26
58967;BME280;44744;51.894;5.080;2023-05-12T01:00:51;101790.07;;;12.14;88.06
58967;BME280;44744;51.894;5.080;2023-05-12T01:01:57;101792.02;;;12.14;88.36
58967;BME280;44744;51.894;5.080;2023-05-12T01:03:03;101788.54;;;12.13;88.40
58967;BME280;44744;51.894;5.080;2023-05-12T01:04:04;101788.77;;;12.11;88.60
58967;BME280;44744;51.894;5.080;2023-05-12T01:05:05;101789.89;;;12.10;88.91
58967;BME280;44744;51.894;5.080;2023-05-12T01:07:31;101786.75;;;12.09;89.27
58967;BME280;44744;51.894;5.080;2023-05-12T01:08:37;101786.81;;;12.08;89.45
58967;BME280;44744;51.894;5.080;2023-05-12T01:09:44;101784.02;;;12.07;89.30
58967;BME280;44744;51.894;5.080;2023-05-12T01:10:45;101782.42;;;12.07;89.89
58967;BME280;44744;51.894;5.080;2023-05-12T01:11:46;101782.14;;;12.06;89.92
58967;BME280;44744;51.894;5.080;2023-05-12T01:12:48;101782.67;;;12.06;90.36
58967;BME280;44744;51.894;5.080;2023-05-12T01:13:49;101778.30;;;12.04;90.13
58967;BME280;44744;51.894;5.080;2023-05-12T01:14:54;101779.36;;;12.04;90.30
58967;BME280;44744;51.894;5.080;2023-05-12T01:15:58;101776.83;;;12.05;90.99
58967;BME280;44744;51.894;5.080;2023-05-12T01:17:10;101775.81;;;12.04;91.00
58967;BME280;44744;51.894;5.080;2023-05-12T01:18:14;101774.45;;;12.03;91.53
58967;BME280;44744;51.894;5.080;2023-05-12T01:19:53;101774.70;;;12.02;91.66
58967;BME280;44744;51.894;5.080;2023-05-12T01:20:58;101774.63;;;11.99;91.46
58967;BME280;44744;51.894;5.080;2023-05-12T01:21:59;101772.69;;;11.99;91.68
58967;BME280;44744;51.894;5.080;2023-05-12T01:23:01;101771.40;;;12.00;91.84
58967;BME280;44744;51.894;5.080;2023-05-12T01:24:07;101773.02;;;12.00;91.70
58967;BME280;44744;51.894;5.080;2023-05-12T01:25:10;101774.08;;;12.00;92.12
58967;BME280;44744;51.894;5.080;2023-05-12T01:26:12;101773.05;;;11.99;91.88
58967;BME280;44744;51.894;5.080;2023-05-12T01:27:14;101775.30;;;12.00;92.27
58967;BME280;44744;51.894;5.080;2023-05-12T01:28:16;101773.86;;;12.01;92.59
58967;BME280;44744;51.894;5.080;2023-05-12T01:29:17;101769.21;;;11.98;92.63
58967;BME280;44744;51.894;5.080;2023-05-12T01:30:28;101767.81;;;11.97;92.59
58967;BME280;44744;51.894;5.080;2023-05-12T01:31:31;101770.95;;;11.98;92.89
58967;BME280;44744;51.894;5.080;2023-05-12T01:32:35;101776.98;;;11.98;92.83
58967;BME280;44744;51.894;5.080;2023-05-12T01:33:49;101767.23;;;11.98;92.84
58967;BME280;44744;51.894;5.080;2023-05-12T01:34:49;101765.09;;;11.99;92.79
58967;BME280;44744;51.894;5.080;2023-05-12T01:35:58;101768.06;;;12.00;92.86
58967;BME280;44744;51.894;5.080;2023-05-12T01:37:20;101768.95;;;12.00;92.77
58967;BME280;44744;51.894;5.080;2023-05-12T01:38:21;101767.65;;;12.01;92.95
58967;BME280;44744;51.894;5.080;2023-05-12T01:39:21;101767.96;;;12.01;93.40
58967;BME280;44744;51.894;5.080;2023-05-12T01:40:21;101766.42;;;12.00;93.22
58967;BME280;44744;51.894;5.080;2023-05-12T01:41:24;101763.76;;;12.01;93.15
58967;BME280;44744;51.894;5.080;2023-05-12T01:42:25;101768.15;;;12.01;93.69
58967;BME280;44744;51.894;5.080;2023-05-12T01:43:25;101765.38;;;12.00;93.67
58967;BME280;44744;51.894;5.080;2023-05-12T01:44:26;101768.42;;;12.00;93.34
58967;BME280;44744;51.894;5.080;2023-05-12T01:45:26;101766.24;;;12.00;93.51
58967;BME280;44744;51.894;5.080;2023-05-12T01:46:29;101765.16;;;12.01;93.50
58967;BME280;44744;51.894;5.080;2023-05-12T01:47:31;101764.73;;;12.03;93.54
58967;BME280;44744;51.894;5.080;2023-05-12T01:48:31;101766.15;;;12.03;93.91
58967;BME280;44744;51.894;5.080;2023-05-12T01:49:32;101763.79;;;12.04;93.78
58967;BME280;44744;51.894;5.080;2023-05-12T01:50:34;101766.10;;;12.03;93.98
58967;BME280;44744;51.894;5.080;2023-05-12T01:51:34;101764.64;;;12.04;93.89
58967;BME280;44744;51.894;5.080;2023-05-12T01:52:35;101765.38;;;12.04;93.90
58967;BME280;44744;51.894;5.080;2023-05-12T01:53:40;101765.00;;;12.04;94.05
58967;BME280;44744;51.894;5.080;2023-05-12T01:54:41;101765.28;;;12.06;94.67
58967;BME280;44744;51.894;5.080;2023-05-12T01:55:44;101765.11;;;12.06;94.75
58967;BME280;44744;51.894;5.080;2023-05-12T01:56:44;101767.34;;;12.04;94.37
58967;BME280;44744;51.894;5.080;2023-05-12T01:57:44;101765.02;;;12.04;94.74
58967;BME280;44744;51.894;5.080;2023-05-12T01:58:45;101763.46;;;12.03;95.10
58967;BME280;44744;51.894;5.080;2023-05-12T01:59:46;101762.43;;;12.02;94.76
58967;BME280;44744;51.894;5.080;2023-05-12T02:00:48;101762.94;;;12.03;95.56
58967;BME280;44744;51.894;5.080;2023-05-12T02:01:49;101765.89;;;12.00;95.30
58967;BME280;44744;51.894;5.080;2023-05-12T02:02:50;101764.66;;;12.00;95.02
58967;BME280;44744;51.894;5.080;2023-05-12T02:03:53;101765.31;;;12.02;95.40
58967;BME280;44744;51.894;5.080;2023-05-12T02:04:55;101763.40;;;12.01;95.52
58967;BME280;44744;51.894;5.080;2023-05-12T02:05:55;101764.16;;;12.00;95.43
58967;BME280;44744;51.894;5.080;2023-05-12T02:06:55;101763.26;;;12.00;95.46
58967;BME280;44744;51.894;5.080;2023-05-12T02:07:56;101763.98;;;12.00;95.61
58967;BME280;44744;51.894;5.080;2023-05-12T02:09:14;101761.48;;;12.00;95.84
58967;BME280;44744;51.894;5.080;2023-05-12T02:10:35;101759.36;;;11.95;96.15
58967;BME280;44744;51.894;5.080;2023-05-12T02:11:38;101760.36;;;11.93;96.14
58967;BME280;44744;51.894;5.080;2023-05-12T02:12:43;101763.21;;;11.93;96.31
58967;BME280;44744;51.894;5.080;2023-05-12T02:13:48;101762.56;;;11.91;95.87
58967;BME280;44744;51.894;5.080;2023-05-12T02:14:49;101764.64;;;11.92;96.16
58967;BME280;44744;51.894;5.080;2023-05-12T02:15:53;101758.58;;;11.92;96.02
58967;BME280;44744;51.894;5.080;2023-05-12T02:17:08;101760.88;;;11.93;96.16
58967;BME280;44744;51.894;5.080;2023-05-12T02:18:32;101759.80;;;11.93;96.24
58967;BME280;44744;51.894;5.080;2023-05-12T02:19:34;101757.51;;;11.93;97.02
58967;BME280;44744;51.894;5.080;2023-05-12T02:20:50;101757.46;;;11.90;96.88
58967;BME280;44744;51.894;5.080;2023-05-12T02:22:00;101754.38;;;11.88;96.86
58967;BME280;44744;51.894;5.080;2023-05-12T02:23:01;101754.60;;;11.87;96.68
58967;BME280;44744;51.894;5.080;2023-05-12T02:24:17;101752.83;;;11.87;96.85
58967;BME280;44744;51.894;5.080;2023-05-12T02:25:37;101751.77;;;11.87;97.01
58967;BME280;44744;51.894;5.080;2023-05-12T02:26:42;101749.54;;;11.85;97.00
58967;BME280;44744;51.894;5.080;2023-05-12T02:27:44;101747.56;;;11.86;97.10
58967;BME280;44744;51.894;5.080;2023-05-12T02:28:48;101747.95;;;11.85;97.00
58967;BME280;44744;51.894;5.080;2023-05-12T02:29:48;101744.79;;;11.85;97.06
58967;BME280;44744;51.894;5.080;2023-05-12T02:30:50;101744.42;;;11.85;97.27
58967;BME280;44744;51.894;5.080;2023-05-12T02:31:59;101746.73;;;11.84;97.15
58967;BME280;44744;51.894;5.080;2023-05-12T02:33:01;101745.85;;;11.84;97.28
58967;BME280;44744;51.894;5.080;2023-05-12T02:34:02;101746.12;;;11.83;97.62
58967;BME280;44744;51.894;5.080;2023-05-12T02:35:10;101742.98;;;11.81;97.44
58967;BME280;44744;51.894;5.080;2023-05-12T02:36:11;101743.70;;;11.81;97.43
58967;BME280;44744;51.894;5.080;2023-05-12T02:37:13;101741.25;;;11.81;97.80
58967;BME280;44744;51.894;5.080;2023-05-12T02:38:14;101741.80;;;11.79;97.54
58967;BME280;44744;51.894;5.080;2023-05-12T02:39:15;101739.52;;;11.79;97.41
58967;BME280;44744;51.894;5.080;2023-05-12T02:40:21;101739.99;;;11.81;97.66
58967;BME280;44744;51.894;5.080;2023-05-12T02:41:22;101740.70;;;11.81;97.99
58967;BME280;44744;51.894;5.080;2023-05-12T02:42:23;101740.54;;;11.80;98.29
58967;BME280;44744;51.894;5.080;2023-05-12T02:43:24;101738.50;;;11.78;97.97
58967;BME280;44744;51.894;5.080;2023-05-12T02:44:28;101743.09;;;11.78;97.93
58967;BME280;44744;51.894;5.080;2023-05-12T02:45:34;101738.11;;;11.79;97.91
58967;BME280;44744;51.894;5.080;2023-05-12T02:46:37;101739.48;;;11.80;97.81
58967;BME280;44744;51.894;5.080;2023-05-12T02:47:38;101737.36;;;11.80;98.03
58967;BME280;44744;51.894;5.080;2023-05-12T02:48:39;101742.51;;;11.80;97.93
58967;BME280;44744;51.894;5.080;2023-05-12T02:49:40;101737.85;;;11.81;97.98
58967;BME280;44744;51.894;5.080;2023-05-12T02:50:41;101739.23;;;11.82;97.97
58967;BME280;44744;51.894;5.080;2023-05-12T02:51:42;101739.61;;;11.81;98.20
58967;BME280;44744;51.894;5.080;2023-05-12T02:52:44;101741.59;;;11.81;98.15
58967;BME280;44744;51.894;5.080;2023-05-12T02:53:45;101741.94;;;11.81;98.33
58967;BME280;44744;51.894;5.080;2023-05-12T02:54:47;101739.93;;;11.78;98.12
58967;BME280;44744;51.894;5.080;2023-05-12T02:56:02;101739.38;;;11.78;98.19
58967;BME280;44744;51.894;5.080;2023-05-12T02:57:05;101733.67;;;11.79;98.23
58967;BME280;44744;51.894;5.080;2023-05-12T02:58:06;101735.46;;;11.79;98.25
58967;BME280;44744;51.894;5.080;2023-05-12T02:59:07;101734.73;;;11.79;98.46
58967;BME280;44744;51.894;5.080;2023-05-12T03:00:07;101734.89;;;11.80;98.27
58967;BME280;44744;51.894;5.080;2023-05-12T03:01:08;101732.91;;;11.81;98.23
58967;BME280;44744;51.894;5.080;2023-05-12T03:02:08;101729.20;;;11.81;98.65
58967;BME280;44744;51.894;5.080;2023-05-12T03:03:09;101730.60;;;11.80;98.69
58967;BME280;44744;51.894;5.080;2023-05-12T03:04:10;101729.05;;;11.80;98.48
58967;BME280;44744;51.894;5.080;2023-05-12T03:05:11;101730.77;;;11.81;98.36
58967;BME280;44744;51.894;5.080;2023-05-12T03:06:12;101728.30;;;11.81;98.56
58967;BME280;44744;51.894;5.080;2023-05-12T03:07:12;101727.90;;;11.82;98.50
58967;BME280;44744;51.894;5.080;2023-05-12T03:08:17;101727.52;;;11.82;98.66
58967;BME280;44744;51.894;5.080;2023-05-12T03:09:24;101720.80;;;11.82;98.62
58967;BME280;44744;51.894;5.080;2023-05-12T03:10:28;101718.32;;;11.82;98.77
58967;BME280;44744;51.894;5.080;2023-05-12T03:11:31;101717.63;;;11.82;98.66
58967;BME280;44744;51.894;5.080;2023-05-12T03:12:40;101716.67;;;11.83;98.64
58967;BME280;44744;51.894;5.080;2023-05-12T03:13:45;101716.14;;;11.83;99.10
58967;BME280;44744;51.894;5.080;2023-05-12T03:14:49;101715.24;;;11.83;98.85
58967;BME280;44744;51.894;5.080;2023-05-12T03:15:52;101716.15;;;11.83;98.97
58967;BME280;44744;51.894;5.080;2023-05-12T03:16:52;101715.27;;;11.83;99.06
58967;BME280;44744;51.894;5.080;2023-05-12T03:17:52;101712.52;;;11.81;99.19
58967;BME280;44744;51.894;5.080;2023-05-12T03:18:52;101712.73;;;11.80;99.30
58967;BME280;44744;51.894;5.080;2023-05-12T03:19:55;101713.96;;;11.80;99.26
58967;BME280;44744;51.894;5.080;2023-05-12T03:20:56;101712.35;;;11.81;99.21
58967;BME280;44744;51.894;5.080;2023-05-12T03:21:56;101714.06;;;11.82;99.75
58967;BME280;44744;51.894;5.080;2023-05-12T03:22:57;101710.06;;;11.80;99.57
58967;BME280;44744;51.894;5.080;2023-05-12T03:23:59;101716.83;;;11.79;99.54
58967;BME280;44744;51.894;5.080;2023-05-12T03:24:59;101715.00;;;11.80;99.92
58967;BME280;44744;51.894;5.080;2023-05-12T03:26:02;101708.80;;;11.77;99.94
58967;BME280;44744;51.894;5.080;2023-05-12T03:27:05;101712.08;;;11.75;99.99
58967;BME280;44744;51.894;5.080;2023-05-12T03:28:08;101709.26;;;11.74;100.00
58967;BME280;44744;51.894;5.080;2023-05-12T03:29:20;101708.80;;;11.73;100.00
58967;BME280;44744;51.894;5.080;2023-05-12T03:30:33;101704.43;;;11.72;100.00
58967;BME280;44744;51.894;5.080;2023-05-12T03:31:33;101708.39;;;11.70;100.00
58967;BME280;44744;51.894;5.080;2023-05-12T03:32:34;101706.02;;;11.72;100.00
58967;BME280;44744;51.894;5.080;2023-05-12T03:33:36;101705.17;;;11.71;100.00
58967;BME280;44744;51.894;5.080;2023-05-12T03:34:38;101708.34;;;11.72;100.00
58967;BME280;44744;51.894;5.080;2023-05-12T03:35:39;101706.58;;;11.72;100.00
58967;BME280;44744;51.894;5.080;2023-05-12T03:36:43;101702.30;;;11.72;100.00
58967;BME280;44744;51.894;5.080;2023-05-12T03:37:43;101704.30;;;11.71;100.00
58967;BME280;44744;51.894;5.080;2023-05-12T03:38:47;101702.73;;;11.70;100.00
58967;BME280;44744;51.894;5.080;2023-05-12T03:39:53;101704.20;;;11.69;100.00
58967;BME280;44744;51.894;5.080;2023-05-12T03:41:08;101703.88;;;11.68;100.00
58967;BME280;44744;51.894;5.080;2023-05-12T03:42:10;101704.25;;;11.68;100.00
58967;BME280;44744;51.894;5.080;2023-05-12T03:43:12;101703.60;;;11.67;100.00
58967;BME280;44744;51.894;5.080;2023-05-12T03:44:26;101705.33;;;11.68;100.00
58967;BME280;44744;51.894;5.080;2023-05-12T03:45:29;101700.17;;;11.68;100.00
58967;BME280;44744;51.894;5.080;2023-05-12T03:46:31;101701.98;;;11.67;100.00
58967;BME280;44744;51.894;5.080;2023-05-12T03:47:32;101700.73;;;11.68;100.00
58967;BME280;44744;51.894;5.080;2023-05-12T03:48:49;101703.67;;;11.69;100.00
58967;BME280;44744;51.894;5.080;2023-05-12T03:49:51;101704.33;;;11.66;100.00
58967;BME280;44744;51.894;5.080;2023-05-12T03:51:16;101700.83;;;11.65;100.00
58967;BME280;44744;51.894;5.080;2023-05-12T03:52:26;101700.37;;;11.64;100.00
58967;BME280;44744;51.894;5.080;2023-05-12T03:53:29;101703.59;;;11.63;100.00
58967;BME280;44744;51.894;5.080;2023-05-12T03:54:32;101698.09;;;11.64;100.00
58967;BME280;44744;51.894;5.080;2023-05-12T03:55:35;101700.03;;;11.64;100.00
58967;BME280;44744;51.894;5.080;2023-05-12T03:56:42;101702.17;;;11.63;100.00
58967;BME280;44744;51.894;5.080;2023-05-12T03:57:44;101701.81;;;11.63;100.00
58967;BME280;44744;51.894;5.080;2023-05-12T03:58:44;101707.61;;;11.64;100.00
58967;BME280;44744;51.894;5.080;2023-05-12T03:59:45;101703.23;;;11.63;100.00
58967;BME280;44744;51.894;5.080;2023-05-12T04:00:48;101702.39;;;11.62;100.00
58967;BME280;44744;51.894;5.080;2023-05-12T04:01:51;101702.59;;;11.61;100.00
58967;BME280;44744;51.894;5.080;2023-05-12T04:02:55;101706.84;;;11.61;100.00
58967;BME280;44744;51.894;5.080;2023-05-12T04:04:02;101703.84;;;11.61;100.00
58967;BME280;44744;51.894;5.080;2023-05-12T04:05:03;101702.77;;;11.61;100.00
58967;BME280;44744;51.894;5.080;2023-05-12T04:06:07;101702.48;;;11.60;100.00
58967;BME280;44744;51.894;5.080;2023-05-12T04:07:10;101701.20;;;11.60;100.00
58967;BME280;44744;51.894;5.080;2023-05-12T04:08:12;101702.13;;;11.60;100.00
58967;BME280;44744;51.894;5.080;2023-05-12T04:09:12;101699.67;;;11.59;100.00
58967;BME280;44744;51.894;5.080;2023-05-12T04:10:13;101700.27;;;11.58;100.00
58967;BME280;44744;51.894;5.080;2023-05-12T04:11:17;101702.09;;;11.57;100.00
58967;BME280;44744;51.894;5.080;2023-05-12T04:12:17;101702.38;;;11.58;100.00
58967;BME280;44744;51.894;5.080;2023-05-12T04:13:21;101699.90;;;11.58;100.00
58967;BME280;44744;51.894;5.080;2023-05-12T04:14:23;101704.16;;;11.58;100.00
58967;BME280;44744;51.894;5.080;2023-05-12T04:15:23;101703.84;;;11.57;100.00
58967;BME280;44744;51.894;5.080;2023-05-12T04:16:24;101702.83;;;11.56;100.00
58967;BME280;44744;51.894;5.080;2023-05-12T04:17:24;101701.41;;;11.56;100.00
58967;BME280;44744;51.894;5.080;2023-05-12T04:18:26;101702.98;;;11.56;100.00
58967;BME280;44744;51.894;5.080;2023-05-12T04:19:27;101700.16;;;11.56;100.00
58967;BME280;44744;51.894;5.080;2023-05-12T04:20:27;101701.40;;;11.56;100.00
58967;BME280;44744;51.894;5.080;2023-05-12T04:21:29;101703.16;;;11.57;100.00
58967;BME280;44744;51.894;5.080;2023-05-12T04:22:37;101700.66;;;11.57;100.00
58967;BME280;44744;51.894;5.080;2023-05-12T04:23:46;101695.94;;;11.56;100.00
58967;BME280;44744;51.894;5.080;2023-05-12T04:24:49;101698.77;;;11.56;100.00
58967;BME280;44744;51.894;5.080;2023-05-12T04:25:50;101698.25;;;11.56;100.00
58967;BME280;44744;51.894;5.080;2023-05-12T04:26:50;101698.40;;;11.56;100.00
58967;BME280;44744;51.894;5.080;2023-05-12T04:27:54;101701.33;;;11.55;100.00
58967;BME280;44744;51.894;5.080;2023-05-12T04:28:54;101704.90;;;11.54;100.00
58967;BME280;44744;51.894;5.080;2023-05-12T04:29:58;101711.31;;;11.53;100.00
58967;BME280;44744;51.894;5.080;2023-05-12T04:31:02;101705.70;;;11.52;100.00
58967;BME280;44744;51.894;5.080;2023-05-12T04:32:06;101706.94;;;11.52;100.00
58967;BME280;44744;51.894;5.080;2023-05-12T04:33:14;101701.26;;;11.52;100.00
58967;BME280;44744;51.894;5.080;2023-05-12T04:34:15;101706.62;;;11.51;100.00
58967;BME280;44744;51.894;5.080;2023-05-12T04:35:15;101702.64;;;11.49;100.00
58967;BME280;44744;51.894;5.080;2023-05-12T04:36:28;101704.96;;;11.48;100.00
58967;BME280;44744;51.894;5.080;2023-05-12T04:37:50;101703.16;;;11.49;100.00
58967;BME280;44744;51.894;5.080;2023-05-12T04:38:50;101698.95;;;11.48;100.00
58967;BME280;44744;51.894;5.080;2023-05-12T04:39:50;101700.79;;;11.47;100.00
58967;BME280;44744;51.894;5.080;2023-05-12T04:40:56;101699.69;;;11.47;100.00
58967;BME280;44744;51.894;5.080;2023-05-12T04:41:58;101704.07;;;11.48;100.00
58967;BME280;44744;51.894;5.080;2023-05-12T04:43:01;101699.58;;;11.50;100.00
58967;BME280;44744;51.894;5.080;2023-05-12T04:44:11;101706.84;;;11.50;100.00
58967;BME280;44744;51.894;5.080;2023-05-12T04:45:15;101706.04;;;11.48;100.00
58967;BME280;44744;51.894;5.080;2023-05-12T04:46:17;101705.31;;;11.48;100.00
58967;BME280;44744;51.894;5.080;2023-05-12T04:47:18;101705.83;;;11.49;100.00
58967;BME280;44744;51.894;5.080;2023-05-12T04:48:20;101710.34;;;11.51;100.00
58967;BME280;44744;51.894;5.080;2023-05-12T04:49:21;101715.85;;;11.50;100.00
58967;BME280;44744;51.894;5.080;2023-05-12T04:50:22;101715.95;;;11.52;100.00
58967;BME280;44744;51.894;5.080;2023-05-12T04:51:26;101716.83;;;11.52;100.00
58967;BME280;44744;51.894;5.080;2023-05-12T04:52:30;101720.38;;;11.52;100.00
58967;BME280;44744;51.894;5.080;2023-05-12T04:53:30;101719.65;;;11.53;100.00
58967;BME280;44744;51.894;5.080;2023-05-12T04:54:31;101721.92;;;11.53;100.00
58967;BME280;44744;51.894;5.080;2023-05-12T04:55:33;101722.09;;;11.53;100.00
58967;BME280;44744;51.894;5.080;2023-05-12T04:56:39;101720.67;;;11.53;100.00
58967;BME280;44744;51.894;5.080;2023-05-12T04:57:39;101727.42;;;11.53;100.00
58967;BME280;44744;51.894;5.080;2023-05-12T04:58:40;101725.28;;;11.53;100.00
58967;BME280;44744;51.894;5.080;2023-05-12T04:59:45;101729.70;;;11.53;100.00
58967;BME280;44744;51.894;5.080;2023-05-12T05:00:45;101728.98;;;11.54;100.00
58967;BME280;44744;51.894;5.080;2023-05-12T05:01:49;101729.17;;;11.53;100.00
58967;BME280;44744;51.894;5.080;2023-05-12T05:02:49;101733.73;;;11.54;100.00
58967;BME280;44744;51.894;5.080;2023-05-12T05:03:49;101737.06;;;11.55;100.00
58967;BME280;44744;51.894;5.080;2023-05-12T05:04:51;101740.74;;;11.56;100.00
58967;BME280;44744;51.894;5.080;2023-05-12T05:05:51;101743.40;;;11.56;100.00
58967;BME280;44744;51.894;5.080;2023-05-12T05:06:53;101744.36;;;11.55;100.00
58967;BME280;44744;51.894;5.080;2023-05-12T05:07:56;101743.48;;;11.54;100.00
58967;BME280;44744;51.894;5.080;2023-05-12T05:08:59;101745.55;;;11.55;100.00
58967;BME280;44744;51.894;5.080;2023-05-12T05:09:59;101748.71;;;11.56;100.00
58967;BME280;44744;51.894;5.080;2023-05-12T05:11:04;101747.73;;;11.54;100.00
58967;BME280;44744;51.894;5.080;2023-05-12T05:12:05;101747.95;;;11.53;100.00
58967;BME280;44744;51.894;5.080;2023-05-12T05:13:06;101750.63;;;11.53;100.00
58967;BME280;44744;51.894;5.080;2023-05-12T05:14:07;101749.91;;;11.54;100.00
58967;BME280;44744;51.894;5.080;2023-05-12T05:15:08;101749.92;;;11.53;100.00
58967;BME280;44744;51.894;5.080;2023-05-12T05:16:09;101746.18;;;11.53;100.00
58967;BME280;44744;51.894;5.080;2023-05-12T05:17:10;101748.66;;;11.54;100.00
58967;BME280;44744;51.894;5.080;2023-05-12T05:18:10;101749.48;;;11.55;100.00
58967;BME280;44744;51.894;5.080;2023-05-12T05:19:17;101750.88;;;11.55;100.00
58967;BME280;44744;51.894;5.080;2023-05-12T05:20:19;101754.77;;;11.55;100.00
58967;BME280;44744;51.894;5.080;2023-05-12T05:21:27;101755.60;;;11.56;100.00
58967;BME280;44744;51.894;5.080;2023-05-12T05:22:29;101751.69;;;11.57;100.00
58967;BME280;44744;51.894;5.080;2023-05-12T05:23:30;101753.25;;;11.58;100.00
58967;BME280;44744;51.894;5.080;2023-05-12T05:24:33;101755.70;;;11.59;100.00
58967;BME280;44744;51.894;5.080;2023-05-12T05:25:36;101755.84;;;11.59;100.00
58967;BME280;44744;51.894;5.080;2023-05-12T05:29:56;101759.51;;;11.60;100.00
58967;BME280;44744;51.894;5.080;2023-05-12T05:30:57;101754.84;;;11.58;100.00
58967;BME280;44744;51.894;5.080;2023-05-12T05:31:57;101756.32;;;11.60;100.00
58967;BME280;44744;51.894;5.080;2023-05-12T05:32:58;101755.38;;;11.62;100.00
58967;BME280;44744;51.894;5.080;2023-05-12T05:33:58;101753.94;;;11.62;100.00